sensor_id;sensor_type;location;lat;lon;timestamp;P1;durP1;ratioP1;P2;durP2;ratioP2
70558;SDS011;58108;48.094;11.838;2023-06-04T00:01:34;4.60;;;2.17;;
70558;SDS011;58108;48.094;11.838;2023-06-04T00:03:59;6.90;;;2.07;;
70558;SDS011;58108;48.094;11.838;2023-06-04T00:06:25;5.87;;;1.93;;
70558;SDS011;58108;48.094;11.838;2023-06-04T00:08:50;5.43;;;2.20;;
70558;SDS011;58108;48.094;11.838;2023-06-04T00:11:15;4.80;;;1.90;;
70558;SDS011;58108;48.094;11.838;2023-06-04T00:13:40;3.60;;;1.50;;
70558;SDS011;58108;48.094;11.838;2023-06-04T00:16:05;5.57;;;1.80;;
70558;SDS011;58108;48.094;11.838;2023-06-04T00:18:30;5.50;;;1.70;;
70558;SDS011;58108;48.094;11.838;2023-06-04T00:20:56;4.87;;;1.60;;
70558;SDS011;58108;48.094;11.838;2023-06-04T00:23:21;4.70;;;1.60;;
70558;SDS011;58108;48.094;11.838;2023-06-04T00:25:46;6.40;;;2.10;;
70558;SDS011;58108;48.094;11.838;2023-06-04T00:28:11;5.83;;;2.03;;
70558;SDS011;58108;48.094;11.838;2023-06-04T00:30:37;4.47;;;1.80;;
70558;SDS011;58108;48.094;11.838;2023-06-04T00:33:02;5.37;;;1.90;;
70558;SDS011;58108;48.094;11.838;2023-06-04T00:35:27;4.60;;;1.70;;
70558;SDS011;58108;48.094;11.838;2023-06-04T00:37:52;3.70;;;1.70;;
70558;SDS011;58108;48.094;11.838;2023-06-04T00:40:18;4.37;;;1.70;;
70558;SDS011;58108;48.094;11.838;2023-06-04T00:42:43;5.53;;;1.90;;
70558;SDS011;58108;48.094;11.838;2023-06-04T00:45:09;4.20;;;1.63;;
70558;SDS011;58108;48.094;11.838;2023-06-04T00:47:35;5.03;;;1.80;;
70558;SDS011;58108;48.094;11.838;2023-06-04T00:50:00;5.57;;;1.80;;
70558;SDS011;58108;48.094;11.838;2023-06-04T00:52:25;5.30;;;1.90;;
70558;SDS011;58108;48.094;11.838;2023-06-04T00:54:51;4.60;;;1.57;;
70558;SDS011;58108;48.094;11.838;2023-06-04T00:57:16;4.00;;;1.60;;
70558;SDS011;58108;48.094;11.838;2023-06-04T00:59:41;4.10;;;1.60;;
70558;SDS011;58108;48.094;11.838;2023-06-04T01:02:09;4.90;;;1.77;;
70558;SDS011;58108;48.094;11.838;2023-06-04T01:04:37;4.82;;;1.52;;
70558;SDS011;58108;48.094;11.838;2023-06-04T01:07:03;4.85;;;1.70;;
70558;SDS011;58108;48.094;11.838;2023-06-04T01:09:29;5.50;;;1.70;;
70558;SDS011;58108;48.094;11.838;2023-06-04T01:11:55;5.20;;;1.75;;
70558;SDS011;58108;48.094;11.838;2023-06-04T01:14:23;6.13;;;1.70;;
70558;SDS011;58108;48.094;11.838;2023-06-04T01:16:51;4.93;;;1.50;;
70558;SDS011;58108;48.094;11.838;2023-06-04T01:22:00;5.32;;;2.10;;
70558;SDS011;58108;48.094;11.838;2023-06-04T01:24:27;5.63;;;1.60;;
70558;SDS011;58108;48.094;11.838;2023-06-04T01:26:53;4.05;;;1.60;;
70558;SDS011;58108;48.094;11.838;2023-06-04T01:29:20;4.78;;;1.80;;
70558;SDS011;58108;48.094;11.838;2023-06-04T01:31:46;4.13;;;1.60;;
70558;SDS011;58108;48.094;11.838;2023-06-04T01:34:11;4.30;;;1.80;;
70558;SDS011;58108;48.094;11.838;2023-06-04T01:36:36;5.67;;;1.97;;
70558;SDS011;58108;48.094;11.838;2023-06-04T01:39:02;4.63;;;1.50;;
70558;SDS011;58108;48.094;11.838;2023-06-04T01:41:27;4.13;;;1.73;;
70558;SDS011;58108;48.094;11.838;2023-06-04T01:43:52;3.77;;;1.57;;
70558;SDS011;58108;48.094;11.838;2023-06-04T01:46:17;5.53;;;1.83;;
70558;SDS011;58108;48.094;11.838;2023-06-04T01:48:42;3.87;;;1.57;;
70558;SDS011;58108;48.094;11.838;2023-06-04T01:51:08;4.63;;;1.77;;
70558;SDS011;58108;48.094;11.838;2023-06-04T01:53:33;5.13;;;2.07;;
70558;SDS011;58108;48.094;11.838;2023-06-04T01:55:58;4.10;;;1.40;;
70558;SDS011;58108;48.094;11.838;2023-06-04T01:58:23;4.33;;;1.80;;
70558;SDS011;58108;48.094;11.838;2023-06-04T02:00:51;4.43;;;1.63;;
70558;SDS011;58108;48.094;11.838;2023-06-04T02:03:17;7.10;;;2.22;;
70558;SDS011;58108;48.094;11.838;2023-06-04T02:05:43;5.63;;;1.92;;
70558;SDS011;58108;48.094;11.838;2023-06-04T02:08:11;4.35;;;2.20;;
70558;SDS011;58108;48.094;11.838;2023-06-04T02:10:36;6.28;;;2.30;;
70558;SDS011;58108;48.094;11.838;2023-06-04T02:13:01;4.90;;;1.97;;
70558;SDS011;58108;48.094;11.838;2023-06-04T02:15:28;5.57;;;2.15;;
70558;SDS011;58108;48.094;11.838;2023-06-04T02:17:56;4.40;;;1.88;;
70558;SDS011;58108;48.094;11.838;2023-06-04T02:20:23;5.53;;;1.90;;
70558;SDS011;58108;48.094;11.838;2023-06-04T02:22:48;4.60;;;1.80;;
70558;SDS011;58108;48.094;11.838;2023-06-04T02:25:13;5.07;;;1.70;;
70558;SDS011;58108;48.094;11.838;2023-06-04T02:27:38;5.33;;;2.00;;
70558;SDS011;58108;48.094;11.838;2023-06-04T02:30:04;4.37;;;1.70;;
70558;SDS011;58108;48.094;11.838;2023-06-04T02:32:31;4.70;;;1.77;;
70558;SDS011;58108;48.094;11.838;2023-06-04T02:34:56;6.67;;;2.07;;
70558;SDS011;58108;48.094;11.838;2023-06-04T02:37:21;4.20;;;1.90;;
70558;SDS011;58108;48.094;11.838;2023-06-04T02:39:47;4.28;;;1.60;;
70558;SDS011;58108;48.094;11.838;2023-06-04T02:42:12;4.20;;;1.80;;
70558;SDS011;58108;48.094;11.838;2023-06-04T02:44:37;5.15;;;2.00;;
70558;SDS011;58108;48.094;11.838;2023-06-04T02:47:03;5.90;;;2.30;;
70558;SDS011;58108;48.094;11.838;2023-06-04T02:49:28;7.30;;;2.15;;
70558;SDS011;58108;48.094;11.838;2023-06-04T02:51:53;6.13;;;2.20;;
70558;SDS011;58108;48.094;11.838;2023-06-04T02:54:19;4.90;;;1.73;;
70558;SDS011;58108;48.094;11.838;2023-06-04T02:56:44;4.90;;;1.80;;
70558;SDS011;58108;48.094;11.838;2023-06-04T02:59:09;5.13;;;1.83;;
70558;SDS011;58108;48.094;11.838;2023-06-04T03:01:34;4.90;;;1.60;;
70558;SDS011;58108;48.094;11.838;2023-06-04T03:04:00;3.90;;;1.77;;
70558;SDS011;58108;48.094;11.838;2023-06-04T03:06:28;6.32;;;1.98;;
70558;SDS011;58108;48.094;11.838;2023-06-04T03:08:54;4.70;;;1.83;;
70558;SDS011;58108;48.094;11.838;2023-06-04T03:11:20;4.83;;;2.00;;
70558;SDS011;58108;48.094;11.838;2023-06-04T03:13:46;6.03;;;2.00;;
70558;SDS011;58108;48.094;11.838;2023-06-04T03:16:11;4.53;;;1.73;;
70558;SDS011;58108;48.094;11.838;2023-06-04T03:18:37;5.43;;;1.90;;
70558;SDS011;58108;48.094;11.838;2023-06-04T03:21:02;4.40;;;1.85;;
70558;SDS011;58108;48.094;11.838;2023-06-04T03:23:28;5.55;;;2.10;;
70558;SDS011;58108;48.094;11.838;2023-06-04T03:25:53;4.83;;;1.80;;
70558;SDS011;58108;48.094;11.838;2023-06-04T03:28:18;5.63;;;2.13;;
70558;SDS011;58108;48.094;11.838;2023-06-04T03:30:43;4.93;;;1.77;;
70558;SDS011;58108;48.094;11.838;2023-06-04T03:33:08;5.13;;;2.10;;
70558;SDS011;58108;48.094;11.838;2023-06-04T03:35:33;5.03;;;2.30;;
70558;SDS011;58108;48.094;11.838;2023-06-04T03:37:59;5.13;;;2.10;;
70558;SDS011;58108;48.094;11.838;2023-06-04T03:40:24;5.37;;;2.50;;
70558;SDS011;58108;48.094;11.838;2023-06-04T03:42:49;6.80;;;2.20;;
70558;SDS011;58108;48.094;11.838;2023-06-04T03:45:15;4.77;;;1.80;;
70558;SDS011;58108;48.094;11.838;2023-06-04T03:47:40;7.13;;;2.40;;
70558;SDS011;58108;48.094;11.838;2023-06-04T03:50:05;5.13;;;1.93;;
70558;SDS011;58108;48.094;11.838;2023-06-04T03:52:31;5.10;;;2.10;;
70558;SDS011;58108;48.094;11.838;2023-06-04T03:54:56;4.88;;;1.95;;
70558;SDS011;58108;48.094;11.838;2023-06-04T03:57:21;5.30;;;2.08;;
70558;SDS011;58108;48.094;11.838;2023-06-04T03:59:47;6.43;;;1.93;;
70558;SDS011;58108;48.094;11.838;2023-06-04T04:02:12;6.17;;;2.47;;
70558;SDS011;58108;48.094;11.838;2023-06-04T04:04:37;6.70;;;2.10;;
70558;SDS011;58108;48.094;11.838;2023-06-04T04:07:02;5.30;;;2.20;;
70558;SDS011;58108;48.094;11.838;2023-06-04T04:09:27;4.90;;;1.67;;
70558;SDS011;58108;48.094;11.838;2023-06-04T04:11:53;5.97;;;2.10;;
70558;SDS011;58108;48.094;11.838;2023-06-04T04:14:18;5.13;;;1.97;;
70558;SDS011;58108;48.094;11.838;2023-06-04T04:16:43;4.50;;;1.80;;
70558;SDS011;58108;48.094;11.838;2023-06-04T04:19:08;4.30;;;1.90;;
70558;SDS011;58108;48.094;11.838;2023-06-04T04:21:34;5.57;;;1.90;;
70558;SDS011;58108;48.094;11.838;2023-06-04T04:24:01;6.47;;;2.00;;
70558;SDS011;58108;48.094;11.838;2023-06-04T04:26:27;5.30;;;1.92;;
70558;SDS011;58108;48.094;11.838;2023-06-04T04:28:53;5.00;;;2.03;;
70558;SDS011;58108;48.094;11.838;2023-06-04T04:31:22;4.85;;;2.00;;
70558;SDS011;58108;48.094;11.838;2023-06-04T04:33:48;4.90;;;2.10;;
70558;SDS011;58108;48.094;11.838;2023-06-04T04:36:13;5.30;;;1.90;;
70558;SDS011;58108;48.094;11.838;2023-06-04T04:38:38;5.67;;;2.23;;
70558;SDS011;58108;48.094;11.838;2023-06-04T04:41:03;4.70;;;1.93;;
70558;SDS011;58108;48.094;11.838;2023-06-04T04:43:29;4.77;;;2.00;;
70558;SDS011;58108;48.094;11.838;2023-06-04T04:45:55;5.20;;;2.22;;
70558;SDS011;58108;48.094;11.838;2023-06-04T04:48:20;5.20;;;2.00;;
70558;SDS011;58108;48.094;11.838;2023-06-04T04:50:45;5.43;;;2.20;;
70558;SDS011;58108;48.094;11.838;2023-06-04T04:53:10;4.83;;;2.30;;
70558;SDS011;58108;48.094;11.838;2023-06-04T04:55:36;6.17;;;2.30;;
70558;SDS011;58108;48.094;11.838;2023-06-04T04:58:01;6.67;;;2.60;;
70558;SDS011;58108;48.094;11.838;2023-06-04T05:00:26;5.30;;;2.10;;
70558;SDS011;58108;48.094;11.838;2023-06-04T05:02:52;5.15;;;2.28;;
70558;SDS011;58108;48.094;11.838;2023-06-04T05:05:17;8.17;;;2.20;;
70558;SDS011;58108;48.094;11.838;2023-06-04T05:07:42;4.63;;;2.17;;
70558;SDS011;58108;48.094;11.838;2023-06-04T05:10:08;5.45;;;2.35;;
70558;SDS011;58108;48.094;11.838;2023-06-04T05:12:33;4.65;;;1.90;;
70558;SDS011;58108;48.094;11.838;2023-06-04T05:14:58;5.80;;;2.00;;
70558;SDS011;58108;48.094;11.838;2023-06-04T05:17:23;5.57;;;1.90;;
70558;SDS011;58108;48.094;11.838;2023-06-04T05:19:55;4.97;;;2.10;;
70558;SDS011;58108;48.094;11.838;2023-06-04T05:22:27;6.13;;;3.13;;
70558;SDS011;58108;48.094;11.838;2023-06-04T05:24:53;6.00;;;2.20;;
70558;SDS011;58108;48.094;11.838;2023-06-04T05:27:19;5.20;;;1.93;;
70558;SDS011;58108;48.094;11.838;2023-06-04T05:29:45;4.95;;;2.00;;
70558;SDS011;58108;48.094;11.838;2023-06-04T05:32:10;6.43;;;1.77;;
70558;SDS011;58108;48.094;11.838;2023-06-04T05:34:36;3.97;;;1.77;;
70558;SDS011;58108;48.094;11.838;2023-06-04T05:37:01;5.87;;;2.27;;
70558;SDS011;58108;48.094;11.838;2023-06-04T05:39:29;9.48;;;3.00;;
70558;SDS011;58108;48.094;11.838;2023-06-04T05:41:54;7.70;;;3.50;;
70558;SDS011;58108;48.094;11.838;2023-06-04T05:44:19;4.73;;;2.17;;
70558;SDS011;58108;48.094;11.838;2023-06-04T05:46:44;6.25;;;1.90;;
70558;SDS011;58108;48.094;11.838;2023-06-04T05:49:09;4.90;;;2.00;;
70558;SDS011;58108;48.094;11.838;2023-06-04T05:51:35;4.53;;;1.70;;
70558;SDS011;58108;48.094;11.838;2023-06-04T05:54:01;6.45;;;1.52;;
70558;SDS011;58108;48.094;11.838;2023-06-04T05:56:26;4.00;;;1.67;;
70558;SDS011;58108;48.094;11.838;2023-06-04T05:58:52;4.78;;;1.50;;
70558;SDS011;58108;48.094;11.838;2023-06-04T06:01:17;3.83;;;1.60;;
70558;SDS011;58108;48.094;11.838;2023-06-04T06:03:42;4.23;;;1.70;;
70558;SDS011;58108;48.094;11.838;2023-06-04T06:06:08;5.17;;;1.60;;
70558;SDS011;58108;48.094;11.838;2023-06-04T06:08:35;4.60;;;1.50;;
70558;SDS011;58108;48.094;11.838;2023-06-04T06:11:00;6.23;;;2.07;;
70558;SDS011;58108;48.094;11.838;2023-06-04T06:13:29;6.07;;;2.00;;
70558;SDS011;58108;48.094;11.838;2023-06-04T06:15:55;3.60;;;1.50;;
70558;SDS011;58108;48.094;11.838;2023-06-04T06:18:20;5.93;;;1.77;;
70558;SDS011;58108;48.094;11.838;2023-06-04T06:20:45;4.40;;;1.70;;
70558;SDS011;58108;48.094;11.838;2023-06-04T06:23:11;5.00;;;1.70;;
70558;SDS011;58108;48.094;11.838;2023-06-04T06:25:36;4.40;;;1.77;;
70558;SDS011;58108;48.094;11.838;2023-06-04T06:28:01;4.70;;;1.87;;
70558;SDS011;58108;48.094;11.838;2023-06-04T06:30:26;5.63;;;1.80;;
70558;SDS011;58108;48.094;11.838;2023-06-04T06:32:52;4.63;;;1.85;;
70558;SDS011;58108;48.094;11.838;2023-06-04T06:35:18;4.35;;;1.67;;
70558;SDS011;58108;48.094;11.838;2023-06-04T06:37:43;4.00;;;1.50;;
70558;SDS011;58108;48.094;11.838;2023-06-04T06:40:09;4.87;;;1.77;;
70558;SDS011;58108;48.094;11.838;2023-06-04T06:42:34;5.13;;;2.20;;
70558;SDS011;58108;48.094;11.838;2023-06-04T06:44:59;4.83;;;1.90;;
70558;SDS011;58108;48.094;11.838;2023-06-04T06:47:25;5.07;;;2.10;;
70558;SDS011;58108;48.094;11.838;2023-06-04T06:49:50;6.00;;;1.57;;
70558;SDS011;58108;48.094;11.838;2023-06-04T06:52:15;5.87;;;2.13;;
70558;SDS011;58108;48.094;11.838;2023-06-04T06:54:44;4.43;;;1.80;;
70558;SDS011;58108;48.094;11.838;2023-06-04T06:57:09;3.93;;;1.80;;
70558;SDS011;58108;48.094;11.838;2023-06-04T06:59:34;6.13;;;1.93;;
70558;SDS011;58108;48.094;11.838;2023-06-04T07:02:00;4.80;;;1.80;;
70558;SDS011;58108;48.094;11.838;2023-06-04T07:04:25;4.73;;;2.00;;
70558;SDS011;58108;48.094;11.838;2023-06-04T07:06:51;5.97;;;1.90;;
70558;SDS011;58108;48.094;11.838;2023-06-04T07:09:16;5.65;;;2.05;;
70558;SDS011;58108;48.094;11.838;2023-06-04T07:11:42;7.53;;;2.20;;
70558;SDS011;58108;48.094;11.838;2023-06-04T07:14:07;3.23;;;1.53;;
70558;SDS011;58108;48.094;11.838;2023-06-04T07:16:32;4.33;;;1.97;;
70558;SDS011;58108;48.094;11.838;2023-06-04T07:18:57;4.33;;;1.90;;
70558;SDS011;58108;48.094;11.838;2023-06-04T07:21:23;6.20;;;2.10;;
70558;SDS011;58108;48.094;11.838;2023-06-04T07:23:49;4.85;;;2.17;;
70558;SDS011;58108;48.094;11.838;2023-06-04T07:26:15;4.53;;;1.65;;
70558;SDS011;58108;48.094;11.838;2023-06-04T07:28:41;4.43;;;1.70;;
70558;SDS011;58108;48.094;11.838;2023-06-04T07:31:06;4.80;;;2.00;;
70558;SDS011;58108;48.094;11.838;2023-06-04T07:33:31;3.83;;;1.90;;
70558;SDS011;58108;48.094;11.838;2023-06-04T07:35:57;3.50;;;1.90;;
70558;SDS011;58108;48.094;11.838;2023-06-04T07:38:22;4.67;;;2.00;;
70558;SDS011;58108;48.094;11.838;2023-06-04T07:40:47;6.70;;;2.07;;
70558;SDS011;58108;48.094;11.838;2023-06-04T07:43:12;6.03;;;2.07;;
70558;SDS011;58108;48.094;11.838;2023-06-04T07:45:38;5.00;;;1.87;;
70558;SDS011;58108;48.094;11.838;2023-06-04T07:48:03;4.63;;;1.70;;
70558;SDS011;58108;48.094;11.838;2023-06-04T07:50:28;3.93;;;1.60;;
70558;SDS011;58108;48.094;11.838;2023-06-04T07:52:53;5.03;;;2.03;;
70558;SDS011;58108;48.094;11.838;2023-06-04T07:55:19;4.65;;;1.90;;
70558;SDS011;58108;48.094;11.838;2023-06-04T07:57:44;4.85;;;2.25;;
70558;SDS011;58108;48.094;11.838;2023-06-04T08:00:10;6.10;;;2.30;;
70558;SDS011;58108;48.094;11.838;2023-06-04T08:02:36;4.32;;;2.30;;
70558;SDS011;58108;48.094;11.838;2023-06-04T08:05:01;3.77;;;1.90;;
70558;SDS011;58108;48.094;11.838;2023-06-04T08:07:27;4.47;;;2.00;;
70558;SDS011;58108;48.094;11.838;2023-06-04T08:09:52;4.37;;;1.90;;
70558;SDS011;58108;48.094;11.838;2023-06-04T08:12:17;4.30;;;2.00;;
70558;SDS011;58108;48.094;11.838;2023-06-04T08:14:42;4.63;;;1.93;;
70558;SDS011;58108;48.094;11.838;2023-06-04T08:17:08;3.83;;;1.80;;
70558;SDS011;58108;48.094;11.838;2023-06-04T08:19:33;8.27;;;2.30;;
70558;SDS011;58108;48.094;11.838;2023-06-04T08:21:58;5.10;;;2.07;;
70558;SDS011;58108;48.094;11.838;2023-06-04T08:24:23;4.40;;;2.10;;
70558;SDS011;58108;48.094;11.838;2023-06-04T08:26:48;5.43;;;2.00;;
70558;SDS011;58108;48.094;11.838;2023-06-04T08:29:15;7.57;;;2.33;;
70558;SDS011;58108;48.094;11.838;2023-06-04T08:31:40;8.20;;;2.00;;
70558;SDS011;58108;48.094;11.838;2023-06-04T08:34:05;7.60;;;2.50;;
70558;SDS011;58108;48.094;11.838;2023-06-04T08:36:30;5.37;;;2.10;;
70558;SDS011;58108;48.094;11.838;2023-06-04T08:38:57;5.60;;;2.03;;
70558;SDS011;58108;48.094;11.838;2023-06-04T08:41:44;4.80;;;2.07;;
70558;SDS011;58108;48.094;11.838;2023-06-04T08:44:09;4.18;;;1.90;;
70558;SDS011;58108;48.094;11.838;2023-06-04T08:46:34;5.73;;;2.07;;
70558;SDS011;58108;48.094;11.838;2023-06-04T08:49:04;4.77;;;1.97;;
70558;SDS011;58108;48.094;11.838;2023-06-04T08:51:32;3.78;;;1.85;;
70558;SDS011;58108;48.094;11.838;2023-06-04T08:53:58;5.47;;;2.03;;
70558;SDS011;58108;48.094;11.838;2023-06-04T08:56:24;6.43;;;2.20;;
70558;SDS011;58108;48.094;11.838;2023-06-04T08:58:49;4.70;;;2.10;;
70558;SDS011;58108;48.094;11.838;2023-06-04T09:01:14;5.25;;;2.30;;
70558;SDS011;58108;48.094;11.838;2023-06-04T09:03:40;5.57;;;2.13;;
70558;SDS011;58108;48.094;11.838;2023-06-04T09:06:06;5.67;;;2.13;;
70558;SDS011;58108;48.094;11.838;2023-06-04T09:08:31;5.45;;;2.00;;
70558;SDS011;58108;48.094;11.838;2023-06-04T09:10:59;3.85;;;1.90;;
70558;SDS011;58108;48.094;11.838;2023-06-04T09:13:28;5.10;;;2.30;;
70558;SDS011;58108;48.094;11.838;2023-06-04T09:15:58;5.33;;;2.23;;
70558;SDS011;58108;48.094;11.838;2023-06-04T09:18:25;6.55;;;1.90;;
70558;SDS011;58108;48.094;11.838;2023-06-04T09:20:59;4.47;;;1.90;;
70558;SDS011;58108;48.094;11.838;2023-06-04T09:23:24;5.28;;;1.77;;
70558;SDS011;58108;48.094;11.838;2023-06-04T09:25:50;5.07;;;1.83;;
70558;SDS011;58108;48.094;11.838;2023-06-04T09:28:16;4.50;;;1.70;;
70558;SDS011;58108;48.094;11.838;2023-06-04T09:30:50;5.80;;;1.90;;
70558;SDS011;58108;48.094;11.838;2023-06-04T09:33:15;5.30;;;1.90;;
70558;SDS011;58108;48.094;11.838;2023-06-04T09:35:40;3.90;;;1.90;;
70558;SDS011;58108;48.094;11.838;2023-06-04T09:38:06;5.13;;;1.77;;
70558;SDS011;58108;48.094;11.838;2023-06-04T09:40:37;4.77;;;1.80;;
70558;SDS011;58108;48.094;11.838;2023-06-04T09:43:02;4.43;;;1.88;;
70558;SDS011;58108;48.094;11.838;2023-06-04T09:47:53;6.03;;;2.40;;
70558;SDS011;58108;48.094;11.838;2023-06-04T09:50:24;5.03;;;1.87;;
70558;SDS011;58108;48.094;11.838;2023-06-04T09:52:50;3.92;;;1.75;;
70558;SDS011;58108;48.094;11.838;2023-06-04T09:55:16;3.85;;;1.70;;
70558;SDS011;58108;48.094;11.838;2023-06-04T09:57:46;4.43;;;1.85;;
70558;SDS011;58108;48.094;11.838;2023-06-04T10:00:11;4.28;;;2.15;;
70558;SDS011;58108;48.094;11.838;2023-06-04T10:02:37;3.97;;;1.90;;
70558;SDS011;58108;48.094;11.838;2023-06-04T10:05:02;5.87;;;1.80;;
70558;SDS011;58108;48.094;11.838;2023-06-04T10:07:28;5.70;;;2.28;;
70558;SDS011;58108;48.094;11.838;2023-06-04T10:09:54;5.20;;;2.10;;
70558;SDS011;58108;48.094;11.838;2023-06-04T10:12:22;5.80;;;2.30;;
70558;SDS011;58108;48.094;11.838;2023-06-04T10:14:52;6.10;;;1.92;;
70558;SDS011;58108;48.094;11.838;2023-06-04T10:17:21;3.67;;;1.83;;
70558;SDS011;58108;48.094;11.838;2023-06-04T10:19:46;4.28;;;1.80;;
70558;SDS011;58108;48.094;11.838;2023-06-04T10:22:12;5.20;;;2.03;;
70558;SDS011;58108;48.094;11.838;2023-06-04T10:24:38;5.00;;;2.00;;
70558;SDS011;58108;48.094;11.838;2023-06-04T10:27:03;4.25;;;2.30;;
70558;SDS011;58108;48.094;11.838;2023-06-04T10:29:35;3.30;;;1.97;;
70558;SDS011;58108;48.094;11.838;2023-06-04T10:32:00;4.60;;;1.70;;
70558;SDS011;58108;48.094;11.838;2023-06-04T10:34:26;3.10;;;1.77;;
70558;SDS011;58108;48.094;11.838;2023-06-04T10:36:51;6.82;;;2.17;;
70558;SDS011;58108;48.094;11.838;2023-06-04T10:39:29;6.60;;;2.30;;
70558;SDS011;58108;48.094;11.838;2023-06-04T10:42:00;3.97;;;2.10;;
70558;SDS011;58108;48.094;11.838;2023-06-04T10:44:26;8.02;;;2.28;;
70558;SDS011;58108;48.094;11.838;2023-06-04T10:46:51;3.63;;;2.00;;
70558;SDS011;58108;48.094;11.838;2023-06-04T10:49:25;4.77;;;2.10;;
70558;SDS011;58108;48.094;11.838;2023-06-04T10:51:50;5.07;;;2.00;;
70558;SDS011;58108;48.094;11.838;2023-06-04T10:54:22;9.13;;;3.73;;
70558;SDS011;58108;48.094;11.838;2023-06-04T10:56:47;8.82;;;4.25;;
70558;SDS011;58108;48.094;11.838;2023-06-04T10:59:13;7.87;;;3.43;;
70558;SDS011;58108;48.094;11.838;2023-06-04T11:02:02;5.55;;;2.50;;
70558;SDS011;58108;48.094;11.838;2023-06-04T11:04:25;4.83;;;2.60;;
70558;SDS011;58108;48.094;11.838;2023-06-04T11:07:03;4.65;;;2.35;;
70558;SDS011;58108;48.094;11.838;2023-06-04T11:09:29;5.80;;;2.45;;
70558;SDS011;58108;48.094;11.838;2023-06-04T11:11:58;6.77;;;3.20;;
70558;SDS011;58108;48.094;11.838;2023-06-04T11:14:23;5.38;;;2.47;;
70558;SDS011;58108;48.094;11.838;2023-06-04T11:16:48;5.13;;;2.47;;
70558;SDS011;58108;48.094;11.838;2023-06-04T11:19:14;4.90;;;2.57;;
70558;SDS011;58108;48.094;11.838;2023-06-04T11:21:39;6.87;;;2.80;;
70558;SDS011;58108;48.094;11.838;2023-06-04T11:24:04;4.47;;;2.40;;
70558;SDS011;58108;48.094;11.838;2023-06-04T11:26:32;4.80;;;2.65;;
70558;SDS011;58108;48.094;11.838;2023-06-04T11:28:58;4.88;;;2.58;;
70558;SDS011;58108;48.094;11.838;2023-06-04T11:31:26;4.70;;;2.30;;
70558;SDS011;58108;48.094;11.838;2023-06-04T11:33:52;5.22;;;2.80;;
70558;SDS011;58108;48.094;11.838;2023-06-04T11:36:24;5.20;;;2.70;;
70558;SDS011;58108;48.094;11.838;2023-06-04T11:38:59;8.02;;;2.90;;
70558;SDS011;58108;48.094;11.838;2023-06-04T11:41:29;4.68;;;2.65;;
70558;SDS011;58108;48.094;11.838;2023-06-04T11:43:55;5.10;;;2.40;;
70558;SDS011;58108;48.094;11.838;2023-06-04T11:46:20;6.07;;;2.65;;
70558;SDS011;58108;48.094;11.838;2023-06-04T11:48:52;5.70;;;2.75;;
70558;SDS011;58108;48.094;11.838;2023-06-04T11:51:20;7.10;;;2.47;;
70558;SDS011;58108;48.094;11.838;2023-06-04T11:53:46;4.83;;;2.83;;
70558;SDS011;58108;48.094;11.838;2023-06-04T11:56:13;5.53;;;2.50;;
70558;SDS011;58108;48.094;11.838;2023-06-04T11:58:38;5.67;;;2.57;;
70558;SDS011;58108;48.094;11.838;2023-06-04T12:01:05;5.20;;;2.58;;
70558;SDS011;58108;48.094;11.838;2023-06-04T12:03:38;6.53;;;3.00;;
70558;SDS011;58108;48.094;11.838;2023-06-04T12:06:10;7.67;;;2.83;;
70558;SDS011;58108;48.094;11.838;2023-06-04T12:08:44;5.70;;;2.55;;
70558;SDS011;58108;48.094;11.838;2023-06-04T12:11:09;4.88;;;2.63;;
70558;SDS011;58108;48.094;11.838;2023-06-04T12:13:37;7.07;;;2.73;;
70558;SDS011;58108;48.094;11.838;2023-06-04T12:16:06;4.47;;;2.45;;
70558;SDS011;58108;48.094;11.838;2023-06-04T12:18:31;5.53;;;2.40;;
70558;SDS011;58108;48.094;11.838;2023-06-04T12:20:56;6.60;;;2.90;;
70558;SDS011;58108;48.094;11.838;2023-06-04T12:23:21;5.90;;;2.80;;
70558;SDS011;58108;48.094;11.838;2023-06-04T12:25:49;4.43;;;2.80;;
70558;SDS011;58108;48.094;11.838;2023-06-04T12:28:18;6.57;;;2.73;;
70558;SDS011;58108;48.094;11.838;2023-06-04T12:30:43;5.70;;;2.60;;
70558;SDS011;58108;48.094;11.838;2023-06-04T12:33:10;4.13;;;2.70;;
70558;SDS011;58108;48.094;11.838;2023-06-04T12:35:35;5.13;;;2.70;;
70558;SDS011;58108;48.094;11.838;2023-06-04T12:38:02;4.23;;;2.40;;
70558;SDS011;58108;48.094;11.838;2023-06-04T12:40:27;7.90;;;2.83;;
70558;SDS011;58108;48.094;11.838;2023-06-04T12:42:52;5.47;;;2.57;;
70558;SDS011;58108;48.094;11.838;2023-06-04T12:45:18;4.70;;;2.80;;
70558;SDS011;58108;48.094;11.838;2023-06-04T12:47:43;4.57;;;3.03;;
70558;SDS011;58108;48.094;11.838;2023-06-04T12:50:08;4.93;;;3.17;;
70558;SDS011;58108;48.094;11.838;2023-06-04T12:52:34;4.30;;;2.60;;
70558;SDS011;58108;48.094;11.838;2023-06-04T12:54:59;4.30;;;3.07;;
70558;SDS011;58108;48.094;11.838;2023-06-04T12:57:24;4.43;;;3.13;;
70558;SDS011;58108;48.094;11.838;2023-06-04T12:59:49;4.77;;;3.30;;
70558;SDS011;58108;48.094;11.838;2023-06-04T13:02:14;6.50;;;2.80;;
70558;SDS011;58108;48.094;11.838;2023-06-04T13:04:39;5.00;;;3.17;;
70558;SDS011;58108;48.094;11.838;2023-06-04T13:07:09;4.05;;;2.92;;
70558;SDS011;58108;48.094;11.838;2023-06-04T13:09:34;5.67;;;2.87;;
70558;SDS011;58108;48.094;11.838;2023-06-04T13:12:00;5.60;;;4.07;;
70558;SDS011;58108;48.094;11.838;2023-06-04T13:14:25;4.70;;;2.87;;
70558;SDS011;58108;48.094;11.838;2023-06-04T13:16:50;4.93;;;3.10;;
70558;SDS011;58108;48.094;11.838;2023-06-04T13:19:16;4.18;;;2.42;;
70558;SDS011;58108;48.094;11.838;2023-06-04T13:21:41;3.60;;;2.60;;
70558;SDS011;58108;48.094;11.838;2023-06-04T13:24:06;4.83;;;3.00;;
70558;SDS011;58108;48.094;11.838;2023-06-04T13:26:32;5.63;;;2.65;;
70558;SDS011;58108;48.094;11.838;2023-06-04T13:28:57;5.53;;;2.83;;
70558;SDS011;58108;48.094;11.838;2023-06-04T13:31:23;4.63;;;2.60;;
70558;SDS011;58108;48.094;11.838;2023-06-04T13:33:48;7.03;;;2.70;;
70558;SDS011;58108;48.094;11.838;2023-06-04T13:36:13;5.00;;;2.47;;
70558;SDS011;58108;48.094;11.838;2023-06-04T13:38:38;5.67;;;2.77;;
70558;SDS011;58108;48.094;11.838;2023-06-04T13:41:03;4.23;;;2.57;;
70558;SDS011;58108;48.094;11.838;2023-06-04T13:43:28;4.43;;;2.90;;
70558;SDS011;58108;48.094;11.838;2023-06-04T13:45:54;4.50;;;2.70;;
70558;SDS011;58108;48.094;11.838;2023-06-04T13:48:19;4.07;;;2.60;;
70558;SDS011;58108;48.094;11.838;2023-06-04T13:50:44;5.97;;;2.67;;
70558;SDS011;58108;48.094;11.838;2023-06-04T13:53:09;6.57;;;3.40;;
70558;SDS011;58108;48.094;11.838;2023-06-04T13:55:35;4.82;;;2.90;;
70558;SDS011;58108;48.094;11.838;2023-06-04T13:58:00;4.67;;;2.43;;
70558;SDS011;58108;48.094;11.838;2023-06-04T14:00:26;5.20;;;2.73;;
70558;SDS011;58108;48.094;11.838;2023-06-04T14:02:52;4.87;;;2.87;;
70558;SDS011;58108;48.094;11.838;2023-06-04T14:05:17;4.30;;;2.80;;
70558;SDS011;58108;48.094;11.838;2023-06-04T14:07:42;6.10;;;2.83;;
70558;SDS011;58108;48.094;11.838;2023-06-04T14:10:08;5.13;;;2.50;;
70558;SDS011;58108;48.094;11.838;2023-06-04T14:12:33;6.00;;;2.70;;
70558;SDS011;58108;48.094;11.838;2023-06-04T14:14:59;5.03;;;2.50;;
70558;SDS011;58108;48.094;11.838;2023-06-04T14:17:24;4.70;;;2.80;;
70558;SDS011;58108;48.094;11.838;2023-06-04T14:19:49;6.03;;;2.80;;
70558;SDS011;58108;48.094;11.838;2023-06-04T14:22:14;4.47;;;2.50;;
70558;SDS011;58108;48.094;11.838;2023-06-04T14:24:40;5.57;;;3.00;;
70558;SDS011;58108;48.094;11.838;2023-06-04T14:27:05;5.25;;;2.67;;
70558;SDS011;58108;48.094;11.838;2023-06-04T14:29:31;6.20;;;2.58;;
70558;SDS011;58108;48.094;11.838;2023-06-04T14:31:56;5.13;;;2.60;;